Nearby METAR Reports

 

KPMD - Palmdale, California, USA
Distance from station: NNE 12mi, 19km
Updated: Mon, 11-Dec-2017 11:53am PST
Clear
Clear
 Wind from varies
Wind: varies 3 mph , 6 km/h
Temperature: 61°F , 16°C
Dew Point: -0°F , -18°C
Humidity: 8%
Barometer: 30.35 inHg , 1027.8 hPa
Clouds: Clear
Visibility: 10 miles , 16 km
2017/12/11 19:53 KPMD 111953Z AUTO VRB03KT 10SM CLR 16/M18 A3035 RMK AO2 SLP276 T01611178 TSNO
KWJF - Lancaster/Fox, California, USA
Distance from station: N 17mi, 27km
Updated: Mon, 11-Dec-2017 11:56am PST
Clear
Clear
 Wind from calm
Wind: Calm
Temperature: 63°F , 17°C
Dew Point: -2°F , -19°C
Humidity: 7%
Barometer: 30.35 inHg , 1027.8 hPa
Clouds: Clear
Visibility: 10 miles , 16 km
2017/12/11 19:56 KWJF 111956Z 00000KT 10SM CLR 17/M19 A3035 RMK AO2 SLP281 T01671189
 
KMWS - Mount Wilson, California, USA
Distance from station: SSE 18mi, 30km
Updated: Wed, 13-May-2015 6:45am PDT
NOT Current

 Wind from S
Wind: S 3 mph , 6 km/h, Gust: 5 mph , 7 km/h
Temperature: 43°F , 6°C
Dew Point: -0°F , -18°C
Humidity: 16%
2015/05/13 13:45 KMWS 131345Z 18003G04KT 06/M18 RMK SNOW DEPTH 1.00
KWHP - La / Whiteman, California, USA
Distance from station: SW 21mi, 34km
Updated: Mon, 11-Dec-2017 11:55am PST
Clear
Clear
 Wind from W
Wind: W 8 mph , 13 km/h
Temperature: 77°F , 25°C
Dew Point: 5°F , -15°C
Humidity: 6%
Barometer: 30.24 inHg , 1024 hPa
Clouds: Clear
Visibility: 10 miles , 16 km
2017/12/11 19:55 KWHP 111955Z 27007KT 10SM SKC 25/M15 A3024
 
KBUR - Burbank, California, USA
Distance from station: SSW 22mi, 35km
Updated: Mon, 11-Dec-2017 11:53am PST
Clear
Clear
 Wind from calm
Wind: Calm
Temperature: 79°F , 26°C
Dew Point: 5°F , -15°C
Humidity: 6%
Barometer: 30.20 inHg , 1022.7 hPa
Clouds: Clear
Visibility: 10 miles , 16 km
2017/12/11 19:53 KBUR 111953Z 00000KT 10SM CLR 26/M15 A3020 RMK AO2 SLP216 T02611150
KVNY - Van Nuys, California, USA
Distance from station: SW 25mi, 40km
Updated: Mon, 11-Dec-2017 11:51am PST
Partly cloudy
Partly cloudy
 Wind from varies
Wind: varies 7 mph , 11 km/h
Temperature: 81°F , 27°C
Dew Point: -9°F , -23°C
Humidity: 3%
Barometer: 30.20 inHg , 1022.7 hPa
Clouds: Partly cloudy
Visibility: 10 miles , 16 km
Cloud details: Partly cloudy 15000 ft
2017/12/11 19:51 KVNY 111951Z VRB06KT 10SM SCT150 27/M23 A3020 RMK AO2 SLP219 T02671233
 
KEDW - Edwards Afb, California, USA
Distance from station: NNE 33mi, 53km
Updated: Mon, 11-Dec-2017 11:58am PST
Partly cloudy
Partly cloudy
 Wind from calm
Wind: Calm
Temperature: 55°F , 13°C
Dew Point: -2°F , -19°C
Humidity: 9%
Barometer: 30.33 inHg , 1027.1 hPa
Clouds: Partly cloudy
Visibility: 90 miles , 144 km
Cloud details: Partly cloudy 25000 ft
2017/12/11 19:58 KEDW 111958Z 00000KT 90SM SCT250 13/M19 A3033 RMK AO2A SLP276 CONTRAILS T01321190
KSMO - Santa Monica, California, USA
Distance from station: SSW 35mi, 57km
Updated: Mon, 11-Dec-2017 11:51am PST

 
Temperature: 81°F , 27°C
Dew Point: 12°F , -11°C
Humidity: 7%
Barometer: 30.19 inHg , 1022.4 hPa
2017/12/11 19:51 KSMO 111951Z 27/M11 A3019 RMK AO2 SLP220 T02671111 $
 
KLAX - Los Angeles, California, USA
Distance from station: SSW 39mi, 63km
Updated: Mon, 11-Dec-2017 11:53am PST
Mostly cloudy
Mostly cloudy
 Wind from calm
Wind: Calm
Temperature: 82°F , 28°C
Dew Point: 9°F , -13°C
Humidity: 6%
Barometer: 30.18 inHg , 1022 hPa
Clouds: Mostly cloudy
Visibility: 10 miles , 16 km
Cloud details: Few Clouds 10000 ft
Partly cloudy 14000 ft
Mostly cloudy 18000 ft
2017/12/11 19:53 KLAX 111953Z 00000KT 10SM FEW100 SCT140 BKN180 28/M13 A3018 RMK AO2 SLP219 T02781128
KMHV - Mojave, California, USA
Distance from station: N 41mi, 66km
Updated: Mon, 11-Dec-2017 12:20pm PST
Clear
Clear
 Wind from ENE
Wind: ENE 7 mph , 11 km/h
Temperature: 64°F , 18°C
Dew Point: -6°F , -21°C
Humidity: 5%
Barometer: 30.34 inHg , 1027.4 hPa
Clouds: Clear
Visibility: 10 miles , 16 km
2017/12/11 20:20 KMHV 112020Z AUTO 07006KT 10SM CLR 18/M21 A3034 RMK A01
 
KFUL - Fullerton, California, USA
Distance from station: SSE 44mi, 70km
Updated: Mon, 11-Dec-2017 11:53am PST
Mostly cloudy
Mostly cloudy
 Wind from W
Wind: W 3 mph , 6 km/h
Temperature: 82°F , 28°C
Dew Point: 16°F , -9°C
Humidity: 8%
Barometer: 30.17 inHg , 1021.7 hPa
Clouds: Mostly cloudy
Visibility: 10 miles , 16 km
Cloud details: Mostly cloudy 20000 ft
2017/12/11 19:53 KFUL 111953Z 27003KT 10SM BKN200 28/M09 A3017 RMK AO2 SLP215 T02831094
KONT - Ontario, California, USA
Distance from station: SE 45mi, 72km
Updated: Mon, 11-Dec-2017 11:53am PST
Partly cloudy
Partly cloudy
 Wind from WNW
Wind: WNW 7 mph , 11 km/h
Temperature: 79°F , 26°C
Dew Point: 3°F , -16°C
Humidity: 5%
Barometer: 30.20 inHg , 1022.7 hPa
Clouds: Partly cloudy
Visibility: 10 miles , 16 km
Cloud details: Partly cloudy 25000 ft
2017/12/11 19:53 KONT 111953Z 29006KT 10SM SCT250 26/M16 A3020 RMK AO2 SLP215 T02611156
 
KLGB - Long Beach, California, USA
Distance from station: S 46mi, 74km
Updated: Mon, 11-Dec-2017 11:53am PST
Clear
Clear
 Wind from calm
Wind: Calm
Temperature: 82°F , 28°C
Dew Point: 12°F , -11°C
Humidity: 7%
Barometer: 30.18 inHg , 1022 hPa
Clouds: Clear
Visibility: 10 miles , 16 km
2017/12/11 19:53 KLGB 111953Z 00000KT 10SM CLR 28/M11 A3018 RMK AO2 SLP219 T02831111
KVCV - Victorville, California, USA
Distance from station: E 46mi, 74km
Updated: Thu, 07-Dec-2017 10:55pm PST
NOT Current
Clear
Clear
 Wind from calm
Wind: Calm
Temperature: 34°F , 1°C
Dew Point: -6°F , -21°C
Humidity: 18%
Barometer: 30.48 inHg , 1032.2 hPa
Clouds: Clear
Visibility: 10 miles , 16 km
2017/12/08 06:55 KVCV 080655Z AUTO 00000KT 10SM CLR 01/M21 A3048 RMK AO2
 
KTSP - Tehachapi, California, USA
Distance from station: NNW 48mi, 77km
Updated: Mon, 11-Dec-2017 12:35pm PST
Clear
Clear
 Wind from SE
Wind: SE 16 mph , 26 km/h, Gust: 23 mph , 37 km/h
Temperature: 64°F , 18°C
Dew Point: -9°F , -23°C
Humidity: 5%
Barometer: 30.36 inHg , 1028.1 hPa
Clouds: Clear
Visibility: 10 miles , 16 km
2017/12/11 20:35 KTSP 112035Z AUTO 13014G20KT 10SM CLR 18/M23 A3036 RMK AO2